EGJJ

Jersey Airport

Saint Helier, Jersey
METAR EGJJ 201650Z 02004KT CAVOK 14/11 Q1030
Observed Flight Rules
Oct-20 @ 16:50 UTC (25 minutes ago) Visual Flight Rules
Wind Visibility Clouds
20° at 4 knots 10,000+ meters
  • Clear skies
Temperatures Readings
Current 14°C / 57°F
Dewpoint 11°C / 52°F
Humidity 82%
Altimeter 30.41" Hg
Pressure 1030 hPa
Elevation 84
METAR EGJJ 201650Z 02004KT CAVOK 14/11 Q1030
Observed Flight Rules
Oct-20 @ 16:50 UTC
(25 minutes ago)
VFR
Wind Visibility
20° at 4 knots 10,000+ meters
Clouds
  • Clear skies
Temperature Dewpoint
14°C / 57°F 11°C / 52°F
Humidity Altimeter Pressure
82% 30.41" Hg 1030 hPa